sensor_id;sensor_type;location;lat;lon;timestamp;pressure;altitude;pressure_sealevel;temperature;humidity
63121;BME280;54478;48.684;20.114;2023-03-23T00:01:21;97842.94;;;5.41;100.00
63121;BME280;54478;48.684;20.114;2023-03-23T00:03:51;97844.94;;;5.41;100.00
63121;BME280;54478;48.684;20.114;2023-03-23T00:06:20;97834.06;;;5.07;100.00
63121;BME280;54478;48.684;20.114;2023-03-23T00:08:50;97836.00;;;5.31;100.00
63121;BME280;54478;48.684;20.114;2023-03-23T00:11:26;97829.88;;;5.12;100.00
63121;BME280;54478;48.684;20.114;2023-03-23T00:13:56;97833.13;;;5.25;100.00
63121;BME280;54478;48.684;20.114;2023-03-23T00:16:27;97819.44;;;5.46;100.00
63121;BME280;54478;48.684;20.114;2023-03-23T00:19:00;97815.41;;;5.62;100.00
63121;BME280;54478;48.684;20.114;2023-03-23T00:21:31;97807.25;;;5.53;100.00
63121;BME280;54478;48.684;20.114;2023-03-23T00:24:13;97803.63;;;5.47;100.00
63121;BME280;54478;48.684;20.114;2023-03-23T00:26:48;97814.19;;;5.48;100.00
63121;BME280;54478;48.684;20.114;2023-03-23T00:29:16;97814.75;;;5.52;100.00
63121;BME280;54478;48.684;20.114;2023-03-23T00:31:45;97808.16;;;5.65;100.00
63121;BME280;54478;48.684;20.114;2023-03-23T00:34:16;97809.81;;;5.56;100.00
63121;BME280;54478;48.684;20.114;2023-03-23T00:36:50;97801.94;;;5.19;100.00
63121;BME280;54478;48.684;20.114;2023-03-23T00:39:17;97806.41;;;5.17;100.00
63121;BME280;54478;48.684;20.114;2023-03-23T00:41:46;97805.69;;;4.92;100.00
63121;BME280;54478;48.684;20.114;2023-03-23T00:44:15;97813.44;;;5.03;100.00
63121;BME280;54478;48.684;20.114;2023-03-23T00:46:46;97801.25;;;5.09;100.00
63121;BME280;54478;48.684;20.114;2023-03-23T00:49:20;97781.66;;;5.22;100.00
63121;BME280;54478;48.684;20.114;2023-03-23T00:51:57;97772.81;;;5.33;100.00
63121;BME280;54478;48.684;20.114;2023-03-23T00:54:24;97771.53;;;5.64;100.00
63121;BME280;54478;48.684;20.114;2023-03-23T00:56:53;97774.06;;;5.68;100.00
63121;BME280;54478;48.684;20.114;2023-03-23T00:59:23;97759.16;;;5.44;100.00
63121;BME280;54478;48.684;20.114;2023-03-23T01:01:51;97773.56;;;5.34;100.00
63121;BME280;54478;48.684;20.114;2023-03-23T01:04:19;97766.50;;;5.18;100.00
63121;BME280;54478;48.684;20.114;2023-03-23T01:06:49;97780.69;;;4.96;100.00
63121;BME280;54478;48.684;20.114;2023-03-23T01:09:19;97758.63;;;5.10;100.00
63121;BME280;54478;48.684;20.114;2023-03-23T01:11:51;97761.28;;;5.35;100.00
63121;BME280;54478;48.684;20.114;2023-03-23T01:14:19;97759.75;;;5.34;100.00
63121;BME280;54478;48.684;20.114;2023-03-23T01:16:48;97759.41;;;4.96;100.00
63121;BME280;54478;48.684;20.114;2023-03-23T01:19:17;97758.25;;;5.03;100.00
63121;BME280;54478;48.684;20.114;2023-03-23T01:21:45;97744.66;;;5.14;100.00
63121;BME280;54478;48.684;20.114;2023-03-23T01:24:13;97738.84;;;5.12;100.00
63121;BME280;54478;48.684;20.114;2023-03-23T01:26:41;97736.44;;;5.20;100.00
63121;BME280;54478;48.684;20.114;2023-03-23T01:29:10;97748.03;;;5.24;100.00
63121;BME280;54478;48.684;20.114;2023-03-23T01:31:38;97741.19;;;5.34;100.00
63121;BME280;54478;48.684;20.114;2023-03-23T01:34:07;97734.84;;;5.13;100.00
63121;BME280;54478;48.684;20.114;2023-03-23T01:36:35;97728.25;;;5.25;100.00
63121;BME280;54478;48.684;20.114;2023-03-23T01:39:05;97735.78;;;5.25;100.00
63121;BME280;54478;48.684;20.114;2023-03-23T01:41:34;97740.38;;;5.13;100.00
63121;BME280;54478;48.684;20.114;2023-03-23T01:46:53;97737.41;;;5.02;100.00
63121;BME280;54478;48.684;20.114;2023-03-23T01:49:24;97741.81;;;4.93;100.00
63121;BME280;54478;48.684;20.114;2023-03-23T01:51:55;97745.59;;;4.81;100.00
63121;BME280;54478;48.684;20.114;2023-03-23T01:54:23;97738.66;;;4.86;100.00
63121;BME280;54478;48.684;20.114;2023-03-23T01:56:56;97732.38;;;5.00;100.00
63121;BME280;54478;48.684;20.114;2023-03-23T01:59:25;97742.63;;;4.55;100.00
63121;BME280;54478;48.684;20.114;2023-03-23T02:01:55;97727.44;;;4.74;100.00
63121;BME280;54478;48.684;20.114;2023-03-23T02:04:23;97732.72;;;4.48;100.00
63121;BME280;54478;48.684;20.114;2023-03-23T02:06:53;97734.75;;;4.92;100.00
63121;BME280;54478;48.684;20.114;2023-03-23T02:09:22;97737.34;;;4.96;100.00
63121;BME280;54478;48.684;20.114;2023-03-23T02:11:48;97718.03;;;4.96;100.00
63121;BME280;54478;48.684;20.114;2023-03-23T02:14:19;97711.34;;;5.03;100.00
63121;BME280;54478;48.684;20.114;2023-03-23T02:16:50;97731.06;;;4.81;100.00
63121;BME280;54478;48.684;20.114;2023-03-23T02:35:48;97733.44;;;4.73;100.00
63121;BME280;54478;48.684;20.114;2023-03-23T02:38:23;97723.16;;;4.73;100.00
63121;BME280;54478;48.684;20.114;2023-03-23T02:40:54;97728.97;;;4.75;100.00
63121;BME280;54478;48.684;20.114;2023-03-23T02:43:27;97738.81;;;4.52;100.00
63121;BME280;54478;48.684;20.114;2023-03-23T02:45:54;97723.91;;;4.74;100.00
63121;BME280;54478;48.684;20.114;2023-03-23T02:48:28;97724.84;;;5.01;100.00
63121;BME280;54478;48.684;20.114;2023-03-23T02:50:56;97736.84;;;4.83;100.00
63121;BME280;54478;48.684;20.114;2023-03-23T02:53:27;97724.84;;;4.71;100.00
63121;BME280;54478;48.684;20.114;2023-03-23T02:55:57;97727.50;;;4.50;100.00
63121;BME280;54478;48.684;20.114;2023-03-23T02:58:27;97747.53;;;4.51;100.00
63121;BME280;54478;48.684;20.114;2023-03-23T03:00:55;97717.16;;;4.90;100.00
63121;BME280;54478;48.684;20.114;2023-03-23T03:03:29;97744.13;;;4.41;100.00
63121;BME280;54478;48.684;20.114;2023-03-23T03:06:10;97750.41;;;4.56;100.00
63121;BME280;54478;48.684;20.114;2023-03-23T03:11:09;97744.25;;;4.61;100.00
63121;BME280;54478;48.684;20.114;2023-03-23T03:13:46;97745.56;;;4.51;100.00
63121;BME280;54478;48.684;20.114;2023-03-23T03:16:21;97754.84;;;4.39;100.00
63121;BME280;54478;48.684;20.114;2023-03-23T03:18:59;97742.03;;;4.11;100.00
63121;BME280;54478;48.684;20.114;2023-03-23T03:21:30;97728.25;;;4.51;100.00
63121;BME280;54478;48.684;20.114;2023-03-23T03:24:01;97726.22;;;4.36;100.00
63121;BME280;54478;48.684;20.114;2023-03-23T03:26:30;97727.13;;;4.57;100.00
63121;BME280;54478;48.684;20.114;2023-03-23T03:29:00;97720.38;;;4.58;100.00
63121;BME280;54478;48.684;20.114;2023-03-23T03:31:32;97728.44;;;4.62;100.00
63121;BME280;54478;48.684;20.114;2023-03-23T03:34:01;97728.22;;;4.36;100.00
63121;BME280;54478;48.684;20.114;2023-03-23T03:36:33;97723.22;;;4.10;100.00
63121;BME280;54478;48.684;20.114;2023-03-23T03:39:07;97732.47;;;4.22;100.00
63121;BME280;54478;48.684;20.114;2023-03-23T03:41:34;97728.88;;;4.31;100.00
63121;BME280;54478;48.684;20.114;2023-03-23T03:44:04;97724.88;;;3.92;100.00
63121;BME280;54478;48.684;20.114;2023-03-23T03:46:30;97733.28;;;4.13;100.00
63121;BME280;54478;48.684;20.114;2023-03-23T03:49:01;97728.63;;;4.43;100.00
63121;BME280;54478;48.684;20.114;2023-03-23T03:51:30;97732.81;;;4.15;100.00
63121;BME280;54478;48.684;20.114;2023-03-23T03:53:59;97733.03;;;4.11;100.00
63121;BME280;54478;48.684;20.114;2023-03-23T03:56:28;97726.84;;;4.16;100.00
63121;BME280;54478;48.684;20.114;2023-03-23T03:58:56;97733.59;;;4.15;100.00
63121;BME280;54478;48.684;20.114;2023-03-23T04:01:25;97745.34;;;4.01;100.00
63121;BME280;54478;48.684;20.114;2023-03-23T04:03:53;97743.38;;;4.16;100.00
63121;BME280;54478;48.684;20.114;2023-03-23T04:06:22;97732.53;;;4.13;100.00
63121;BME280;54478;48.684;20.114;2023-03-23T04:08:50;97744.03;;;3.87;100.00
63121;BME280;54478;48.684;20.114;2023-03-23T04:11:18;97749.34;;;4.15;100.00
63121;BME280;54478;48.684;20.114;2023-03-23T04:13:46;97738.28;;;4.24;100.00
63121;BME280;54478;48.684;20.114;2023-03-23T04:16:15;97730.81;;;4.39;100.00
63121;BME280;54478;48.684;20.114;2023-03-23T04:18:45;97755.63;;;3.91;100.00
63121;BME280;54478;48.684;20.114;2023-03-23T04:21:16;97766.81;;;3.87;100.00
63121;BME280;54478;48.684;20.114;2023-03-23T04:23:44;97771.84;;;3.65;100.00
63121;BME280;54478;48.684;20.114;2023-03-23T04:26:12;97771.41;;;3.90;100.00
63121;BME280;54478;48.684;20.114;2023-03-23T04:28:41;97769.97;;;3.71;100.00
63121;BME280;54478;48.684;20.114;2023-03-23T04:31:09;97766.38;;;3.55;100.00
63121;BME280;54478;48.684;20.114;2023-03-23T04:33:40;97768.88;;;3.77;100.00
63121;BME280;54478;48.684;20.114;2023-03-23T04:36:08;97762.09;;;3.54;100.00
63121;BME280;54478;48.684;20.114;2023-03-23T04:38:37;97758.09;;;3.89;100.00
63121;BME280;54478;48.684;20.114;2023-03-23T04:41:05;97753.63;;;3.91;100.00
63121;BME280;54478;48.684;20.114;2023-03-23T04:43:33;97770.78;;;3.86;100.00
63121;BME280;54478;48.684;20.114;2023-03-23T04:46:06;97764.00;;;3.97;100.00
63121;BME280;54478;48.684;20.114;2023-03-23T04:48:36;97758.31;;;3.76;100.00
63121;BME280;54478;48.684;20.114;2023-03-23T04:51:07;97769.88;;;3.89;100.00
63121;BME280;54478;48.684;20.114;2023-03-23T04:53:35;97765.66;;;3.79;100.00
63121;BME280;54478;48.684;20.114;2023-03-23T04:56:04;97757.56;;;3.75;100.00
63121;BME280;54478;48.684;20.114;2023-03-23T04:58:32;97754.66;;;4.03;100.00
63121;BME280;54478;48.684;20.114;2023-03-23T05:01:01;97770.16;;;3.91;100.00
63121;BME280;54478;48.684;20.114;2023-03-23T05:03:30;97759.63;;;3.90;100.00
63121;BME280;54478;48.684;20.114;2023-03-23T05:06:01;97764.94;;;3.93;100.00
63121;BME280;54478;48.684;20.114;2023-03-23T05:08:29;97765.53;;;3.98;100.00
63121;BME280;54478;48.684;20.114;2023-03-23T05:11:00;97764.47;;;4.43;100.00
63121;BME280;54478;48.684;20.114;2023-03-23T05:13:29;97775.00;;;4.45;100.00
63121;BME280;54478;48.684;20.114;2023-03-23T05:15:57;97770.31;;;4.36;100.00
63121;BME280;54478;48.684;20.114;2023-03-23T05:18:25;97766.75;;;4.45;100.00
63121;BME280;54478;48.684;20.114;2023-03-23T05:20:54;97762.78;;;4.22;100.00
63121;BME280;54478;48.684;20.114;2023-03-23T05:23:22;97784.72;;;3.92;100.00
63121;BME280;54478;48.684;20.114;2023-03-23T05:25:54;97778.88;;;3.90;100.00
63121;BME280;54478;48.684;20.114;2023-03-23T05:28:23;97778.31;;;4.34;100.00
63121;BME280;54478;48.684;20.114;2023-03-23T05:30:51;97773.53;;;4.59;100.00
63121;BME280;54478;48.684;20.114;2023-03-23T05:33:20;97779.22;;;4.55;100.00
63121;BME280;54478;48.684;20.114;2023-03-23T05:35:49;97764.59;;;4.79;100.00
63121;BME280;54478;48.684;20.114;2023-03-23T05:38:17;97766.41;;;4.97;100.00
63121;BME280;54478;48.684;20.114;2023-03-23T05:40:46;97767.28;;;4.88;100.00
63121;BME280;54478;48.684;20.114;2023-03-23T05:43:14;97768.59;;;4.93;100.00
63121;BME280;54478;48.684;20.114;2023-03-23T05:45:39;97765.28;;;5.19;100.00
63121;BME280;54478;48.684;20.114;2023-03-23T05:48:07;97755.63;;;5.59;100.00
63121;BME280;54478;48.684;20.114;2023-03-23T05:50:37;97752.28;;;5.55;100.00
63121;BME280;54478;48.684;20.114;2023-03-23T05:53:05;97758.66;;;5.61;100.00
63121;BME280;54478;48.684;20.114;2023-03-23T05:55:33;97748.16;;;5.65;100.00
63121;BME280;54478;48.684;20.114;2023-03-23T05:58:02;97763.19;;;5.43;100.00
63121;BME280;54478;48.684;20.114;2023-03-23T06:00:30;97766.50;;;5.33;100.00
63121;BME280;54478;48.684;20.114;2023-03-23T06:03:00;97770.69;;;5.43;100.00
63121;BME280;54478;48.684;20.114;2023-03-23T06:05:29;97761.53;;;5.37;100.00
63121;BME280;54478;48.684;20.114;2023-03-23T06:07:58;97754.56;;;5.92;100.00
63121;BME280;54478;48.684;20.114;2023-03-23T06:10:27;97755.72;;;6.00;100.00
63121;BME280;54478;48.684;20.114;2023-03-23T06:12:56;97739.34;;;6.38;100.00
63121;BME280;54478;48.684;20.114;2023-03-23T06:15:24;97749.53;;;6.52;100.00
63121;BME280;54478;48.684;20.114;2023-03-23T06:17:53;97747.06;;;6.54;100.00
63121;BME280;54478;48.684;20.114;2023-03-23T06:20:24;97743.25;;;6.78;100.00
63121;BME280;54478;48.684;20.114;2023-03-23T06:22:53;97739.44;;;7.02;100.00
63121;BME280;54478;48.684;20.114;2023-03-23T06:25:21;97740.28;;;6.82;100.00
63121;BME280;54478;48.684;20.114;2023-03-23T06:27:50;97724.78;;;7.22;100.00
63121;BME280;54478;48.684;20.114;2023-03-23T06:30:19;97743.44;;;7.27;100.00
63121;BME280;54478;48.684;20.114;2023-03-23T06:32:48;97731.72;;;7.44;100.00
63121;BME280;54478;48.684;20.114;2023-03-23T06:35:17;97737.06;;;7.47;100.00
63121;BME280;54478;48.684;20.114;2023-03-23T06:37:45;97743.75;;;7.72;100.00
63121;BME280;54478;48.684;20.114;2023-03-23T06:40:14;97731.59;;;8.07;100.00
63121;BME280;54478;48.684;20.114;2023-03-23T06:42:42;97735.63;;;8.12;100.00
63121;BME280;54478;48.684;20.114;2023-03-23T06:45:10;97731.34;;;8.11;100.00
63121;BME280;54478;48.684;20.114;2023-03-23T06:47:39;97730.94;;;8.30;100.00
63121;BME280;54478;48.684;20.114;2023-03-23T06:50:07;97726.50;;;8.61;100.00
63121;BME280;54478;48.684;20.114;2023-03-23T06:52:36;97731.13;;;8.98;100.00
63121;BME280;54478;48.684;20.114;2023-03-23T06:55:05;97743.22;;;8.95;100.00
63121;BME280;54478;48.684;20.114;2023-03-23T06:57:33;97725.81;;;9.00;100.00
63121;BME280;54478;48.684;20.114;2023-03-23T07:00:02;97708.38;;;9.39;100.00
63121;BME280;54478;48.684;20.114;2023-03-23T07:02:33;97724.03;;;9.02;100.00
63121;BME280;54478;48.684;20.114;2023-03-23T07:05:02;97717.22;;;9.32;100.00
63121;BME280;54478;48.684;20.114;2023-03-23T07:07:31;97723.72;;;9.68;100.00
63121;BME280;54478;48.684;20.114;2023-03-23T07:10:00;97715.44;;;9.57;100.00
63121;BME280;54478;48.684;20.114;2023-03-23T07:12:26;97729.81;;;9.67;100.00
63121;BME280;54478;48.684;20.114;2023-03-23T07:14:54;97740.19;;;9.32;100.00
63121;BME280;54478;48.684;20.114;2023-03-23T07:17:20;97736.13;;;9.50;100.00
63121;BME280;54478;48.684;20.114;2023-03-23T07:19:46;97736.66;;;9.32;100.00
63121;BME280;54478;48.684;20.114;2023-03-23T07:22:11;97737.91;;;9.48;100.00
63121;BME280;54478;48.684;20.114;2023-03-23T07:24:40;97731.78;;;9.83;100.00
63121;BME280;54478;48.684;20.114;2023-03-23T07:27:08;97727.44;;;10.05;100.00
63121;BME280;54478;48.684;20.114;2023-03-23T07:29:35;97735.16;;;10.35;100.00
63121;BME280;54478;48.684;20.114;2023-03-23T07:32:10;97699.94;;;10.91;100.00
63121;BME280;54478;48.684;20.114;2023-03-23T07:34:39;97733.28;;;11.02;100.00
63121;BME280;54478;48.684;20.114;2023-03-23T07:37:09;97734.00;;;11.08;100.00
63121;BME280;54478;48.684;20.114;2023-03-23T07:39:37;97729.56;;;11.24;100.00
63121;BME280;54478;48.684;20.114;2023-03-23T07:42:06;97740.88;;;11.38;100.00
63121;BME280;54478;48.684;20.114;2023-03-23T07:44:35;97735.94;;;11.49;100.00
63121;BME280;54478;48.684;20.114;2023-03-23T07:47:01;97741.41;;;11.30;100.00
63121;BME280;54478;48.684;20.114;2023-03-23T07:49:29;97723.63;;;11.64;100.00
63121;BME280;54478;48.684;20.114;2023-03-23T07:51:59;97733.09;;;11.55;100.00
63121;BME280;54478;48.684;20.114;2023-03-23T07:54:30;97719.66;;;12.09;100.00
63121;BME280;54478;48.684;20.114;2023-03-23T07:56:57;97719.75;;;12.41;100.00
63121;BME280;54478;48.684;20.114;2023-03-23T07:59:23;97730.47;;;12.37;100.00
63121;BME280;54478;48.684;20.114;2023-03-23T08:01:50;97730.22;;;12.35;100.00
63121;BME280;54478;48.684;20.114;2023-03-23T08:04:16;97723.00;;;12.45;100.00
63121;BME280;54478;48.684;20.114;2023-03-23T08:06:44;97729.19;;;12.38;100.00
63121;BME280;54478;48.684;20.114;2023-03-23T08:09:13;97736.31;;;12.14;100.00
63121;BME280;54478;48.684;20.114;2023-03-23T08:11:42;97715.84;;;12.50;100.00
63121;BME280;54478;48.684;20.114;2023-03-23T08:14:10;97698.63;;;12.65;100.00
63121;BME280;54478;48.684;20.114;2023-03-23T08:16:39;97720.19;;;12.64;100.00
63121;BME280;54478;48.684;20.114;2023-03-23T08:19:07;97740.34;;;12.38;100.00
63121;BME280;54478;48.684;20.114;2023-03-23T08:21:36;97724.41;;;12.71;100.00
63121;BME280;54478;48.684;20.114;2023-03-23T08:24:05;97721.56;;;12.77;100.00
63121;BME280;54478;48.684;20.114;2023-03-23T08:26:34;97737.63;;;12.90;100.00
63121;BME280;54478;48.684;20.114;2023-03-23T08:29:02;97740.72;;;12.48;100.00
63121;BME280;54478;48.684;20.114;2023-03-23T08:31:31;97735.69;;;13.17;100.00
63121;BME280;54478;48.684;20.114;2023-03-23T08:34:02;97723.31;;;13.12;100.00
63121;BME280;54478;48.684;20.114;2023-03-23T08:36:31;97736.91;;;13.22;100.00
63121;BME280;54478;48.684;20.114;2023-03-23T08:38:59;97737.69;;;13.68;100.00
63121;BME280;54478;48.684;20.114;2023-03-23T08:41:28;97753.25;;;13.63;100.00
63121;BME280;54478;48.684;20.114;2023-03-23T08:44:00;97762.53;;;13.72;100.00
63121;BME280;54478;48.684;20.114;2023-03-23T08:46:26;97765.16;;;13.51;100.00
63121;BME280;54478;48.684;20.114;2023-03-23T08:48:52;97762.88;;;14.35;100.00
63121;BME280;54478;48.684;20.114;2023-03-23T08:51:21;97760.69;;;14.68;100.00
63121;BME280;54478;48.684;20.114;2023-03-23T08:53:50;97744.03;;;15.18;100.00
63121;BME280;54478;48.684;20.114;2023-03-23T08:56:16;97769.44;;;14.99;100.00
63121;BME280;54478;48.684;20.114;2023-03-23T08:58:42;97768.47;;;15.52;100.00
63121;BME280;54478;48.684;20.114;2023-03-23T09:01:11;97776.97;;;15.04;100.00
63121;BME280;54478;48.684;20.114;2023-03-23T09:03:40;97758.28;;;15.62;100.00
63121;BME280;54478;48.684;20.114;2023-03-23T09:06:08;97776.53;;;15.13;100.00
63121;BME280;54478;48.684;20.114;2023-03-23T09:08:37;97757.31;;;15.39;100.00
63121;BME280;54478;48.684;20.114;2023-03-23T09:11:08;97763.25;;;15.35;100.00
63121;BME280;54478;48.684;20.114;2023-03-23T09:13:38;97764.91;;;15.52;100.00
63121;BME280;54478;48.684;20.114;2023-03-23T09:16:07;97763.19;;;15.49;100.00
63121;BME280;54478;48.684;20.114;2023-03-23T09:18:35;97760.19;;;15.46;100.00
63121;BME280;54478;48.684;20.114;2023-03-23T09:21:02;97774.34;;;16.12;100.00
63121;BME280;54478;48.684;20.114;2023-03-23T09:23:29;97775.56;;;15.74;100.00
63121;BME280;54478;48.684;20.114;2023-03-23T09:26:00;97777.13;;;16.04;100.00
63121;BME280;54478;48.684;20.114;2023-03-23T09:28:27;97785.81;;;15.93;100.00
63121;BME280;54478;48.684;20.114;2023-03-23T09:30:56;97768.41;;;16.97;100.00
63121;BME280;54478;48.684;20.114;2023-03-23T09:33:23;97786.25;;;16.70;100.00
63121;BME280;54478;48.684;20.114;2023-03-23T09:35:53;97772.81;;;17.36;100.00
63121;BME280;54478;48.684;20.114;2023-03-23T09:38:19;97784.63;;;16.83;100.00
63121;BME280;54478;48.684;20.114;2023-03-23T09:49:53;97773.19;;;17.79;100.00
63121;BME280;54478;48.684;20.114;2023-03-23T09:52:21;97765.25;;;17.08;100.00
63121;BME280;54478;48.684;20.114;2023-03-23T09:54:50;97779.34;;;17.16;100.00
63121;BME280;54478;48.684;20.114;2023-03-23T09:57:30;97770.75;;;17.75;100.00
63121;BME280;54478;48.684;20.114;2023-03-23T10:05:36;97778.25;;;17.57;100.00
63121;BME280;54478;48.684;20.114;2023-03-23T10:08:13;97778.63;;;18.00;100.00
63121;BME280;54478;48.684;20.114;2023-03-23T10:11:00;97771.47;;;17.91;100.00
63121;BME280;54478;48.684;20.114;2023-03-23T10:16:25;97765.63;;;18.36;100.00
63121;BME280;54478;48.684;20.114;2023-03-23T10:19:11;97769.81;;;17.81;100.00
63121;BME280;54478;48.684;20.114;2023-03-23T10:21:56;97761.63;;;18.47;100.00
63121;BME280;54478;48.684;20.114;2023-03-23T10:24:32;97758.91;;;18.72;100.00
63121;BME280;54478;48.684;20.114;2023-03-23T10:27:17;97765.69;;;18.13;100.00
63121;BME280;54478;48.684;20.114;2023-03-23T10:29:49;97767.66;;;18.43;100.00
63121;BME280;54478;48.684;20.114;2023-03-23T10:32:34;97760.63;;;18.11;100.00
63121;BME280;54478;48.684;20.114;2023-03-23T10:35:05;97752.19;;;18.60;100.00
63121;BME280;54478;48.684;20.114;2023-03-23T10:37:36;97740.00;;;18.57;100.00
63121;BME280;54478;48.684;20.114;2023-03-23T10:40:05;97741.78;;;18.78;100.00
63121;BME280;54478;48.684;20.114;2023-03-23T10:42:39;97735.69;;;18.56;100.00
63121;BME280;54478;48.684;20.114;2023-03-23T10:47:41;97765.50;;;17.56;100.00
63121;BME280;54478;48.684;20.114;2023-03-23T10:50:18;97742.38;;;18.68;100.00
63121;BME280;54478;48.684;20.114;2023-03-23T10:52:51;97741.25;;;18.15;100.00
63121;BME280;54478;48.684;20.114;2023-03-23T10:55:21;97739.84;;;18.55;100.00
63121;BME280;54478;48.684;20.114;2023-03-23T10:58:06;97733.31;;;19.18;100.00
63121;BME280;54478;48.684;20.114;2023-03-23T11:00:41;97721.47;;;19.45;100.00
63121;BME280;54478;48.684;20.114;2023-03-23T11:05:43;97705.41;;;20.16;100.00
63121;BME280;54478;48.684;20.114;2023-03-23T11:08:18;97695.81;;;19.94;100.00
63121;BME280;54478;48.684;20.114;2023-03-23T11:13:20;97688.41;;;20.33;100.00
63121;BME280;54478;48.684;20.114;2023-03-23T11:15:49;97685.06;;;20.62;100.00
63121;BME280;54478;48.684;20.114;2023-03-23T11:18:23;97692.19;;;20.18;100.00
63121;BME280;54478;48.684;20.114;2023-03-23T11:20:53;97673.38;;;20.31;100.00
63121;BME280;54478;48.684;20.114;2023-03-23T11:28:29;97661.00;;;20.71;100.00
63121;BME280;54478;48.684;20.114;2023-03-23T11:31:02;97663.72;;;21.06;100.00
63121;BME280;54478;48.684;20.114;2023-03-23T11:33:51;97650.84;;;21.32;100.00
63121;BME280;54478;48.684;20.114;2023-03-23T11:36:19;97662.47;;;20.99;100.00
63121;BME280;54478;48.684;20.114;2023-03-23T11:38:46;97673.41;;;19.96;100.00
63121;BME280;54478;48.684;20.114;2023-03-23T11:41:18;97689.81;;;18.63;100.00
63121;BME280;54478;48.684;20.114;2023-03-23T11:43:47;97675.22;;;19.41;100.00
63121;BME280;54478;48.684;20.114;2023-03-23T11:48:55;97687.66;;;19.12;100.00
63121;BME280;54478;48.684;20.114;2023-03-23T11:52:05;97687.13;;;19.31;100.00
63121;BME280;54478;48.684;20.114;2023-03-23T11:54:40;97676.09;;;19.26;100.00
63121;BME280;54478;48.684;20.114;2023-03-23T11:57:11;97676.34;;;19.80;100.00
63121;BME280;54478;48.684;20.114;2023-03-23T11:59:39;97647.91;;;20.48;100.00
63121;BME280;54478;48.684;20.114;2023-03-23T12:07:53;97650.47;;;20.09;100.00
63121;BME280;54478;48.684;20.114;2023-03-23T12:10:30;97657.41;;;19.73;100.00
63121;BME280;54478;48.684;20.114;2023-03-23T12:19:00;97645.81;;;20.04;100.00
63121;BME280;54478;48.684;20.114;2023-03-23T12:21:55;97659.31;;;19.28;100.00
63121;BME280;54478;48.684;20.114;2023-03-23T12:48:54;97614.81;;;20.14;100.00
63121;BME280;54478;48.684;20.114;2023-03-23T12:59:17;97636.66;;;19.18;100.00
63121;BME280;54478;48.684;20.114;2023-03-23T13:01:47;97616.94;;;19.35;100.00
63121;BME280;54478;48.684;20.114;2023-03-23T13:04:20;97634.50;;;19.26;100.00
63121;BME280;54478;48.684;20.114;2023-03-23T13:06:49;97607.84;;;19.97;100.00
63121;BME280;54478;48.684;20.114;2023-03-23T13:09:21;97611.09;;;19.94;100.00
63121;BME280;54478;48.684;20.114;2023-03-23T13:11:53;97612.63;;;19.34;100.00
63121;BME280;54478;48.684;20.114;2023-03-23T13:14:35;97611.09;;;19.94;100.00
63121;BME280;54478;48.684;20.114;2023-03-23T13:17:31;97615.78;;;18.88;100.00
63121;BME280;54478;48.684;20.114;2023-03-23T13:23:15;97603.25;;;19.49;100.00
63121;BME280;54478;48.684;20.114;2023-03-23T13:26:00;97594.69;;;19.39;100.00
63121;BME280;54478;48.684;20.114;2023-03-23T13:28:47;97577.97;;;19.59;100.00
63121;BME280;54478;48.684;20.114;2023-03-23T13:31:21;97578.94;;;19.36;100.00
63121;BME280;54478;48.684;20.114;2023-03-23T13:33:58;97585.56;;;19.31;100.00
63121;BME280;54478;48.684;20.114;2023-03-23T13:36:36;97580.19;;;19.00;100.00
63121;BME280;54478;48.684;20.114;2023-03-23T13:39:17;97584.47;;;19.27;100.00
63121;BME280;54478;48.684;20.114;2023-03-23T13:41:54;97571.53;;;19.23;100.00
63121;BME280;54478;48.684;20.114;2023-03-23T13:44:39;97571.06;;;19.35;100.00
63121;BME280;54478;48.684;20.114;2023-03-23T13:47:20;97552.28;;;20.27;100.00
63121;BME280;54478;48.684;20.114;2023-03-23T13:49:59;97550.53;;;20.32;100.00
63121;BME280;54478;48.684;20.114;2023-03-23T14:03:25;97548.81;;;20.74;100.00
63121;BME280;54478;48.684;20.114;2023-03-23T14:08:41;97562.16;;;20.09;100.00
63121;BME280;54478;48.684;20.114;2023-03-23T14:11:20;97562.25;;;20.28;100.00
63121;BME280;54478;48.684;20.114;2023-03-23T14:14:06;97565.00;;;19.38;100.00
63121;BME280;54478;48.684;20.114;2023-03-23T14:19:13;97558.94;;;20.77;100.00
63121;BME280;54478;48.684;20.114;2023-03-23T14:21:42;97559.97;;;20.17;100.00
63121;BME280;54478;48.684;20.114;2023-03-23T14:24:19;97557.91;;;20.17;100.00
63121;BME280;54478;48.684;20.114;2023-03-23T14:26:47;97564.59;;;20.22;100.00
63121;BME280;54478;48.684;20.114;2023-03-23T14:29:13;97572.47;;;19.96;100.00
63121;BME280;54478;48.684;20.114;2023-03-23T14:31:42;97572.09;;;19.82;100.00
63121;BME280;54478;48.684;20.114;2023-03-23T14:34:18;97575.69;;;20.37;100.00
63121;BME280;54478;48.684;20.114;2023-03-23T14:36:44;97574.97;;;19.92;100.00
63121;BME280;54478;48.684;20.114;2023-03-23T14:39:23;97575.59;;;20.45;100.00
63121;BME280;54478;48.684;20.114;2023-03-23T14:41:51;97561.25;;;20.33;100.00
63121;BME280;54478;48.684;20.114;2023-03-23T14:44:27;97558.56;;;20.63;100.00
63121;BME280;54478;48.684;20.114;2023-03-23T14:46:55;97562.75;;;19.90;100.00
63121;BME280;54478;48.684;20.114;2023-03-23T14:49:29;97562.25;;;19.83;100.00
63121;BME280;54478;48.684;20.114;2023-03-23T14:52:09;97550.38;;;20.30;100.00
63121;BME280;54478;48.684;20.114;2023-03-23T14:54:37;97565.66;;;19.82;100.00
63121;BME280;54478;48.684;20.114;2023-03-23T14:57:18;97561.72;;;20.12;100.00
63121;BME280;54478;48.684;20.114;2023-03-23T14:59:46;97566.59;;;19.84;100.00
63121;BME280;54478;48.684;20.114;2023-03-23T15:04:57;97552.88;;;19.98;100.00